sensor_id;sensor_type;location;lat;lon;timestamp;pressure;altitude;pressure_sealevel;temperature;humidity
42003;BME280;27693;50.506;30.832;2022-08-20T00:00:59;99687.61;;;18.45;82.75
42003;BME280;27693;50.506;30.832;2022-08-20T00:02:03;99687.61;;;18.45;82.75
42003;BME280;27693;50.506;30.832;2022-08-20T00:03:18;99684.52;;;18.40;82.80
42003;BME280;27693;50.506;30.832;2022-08-20T00:04:12;99689.78;;;18.40;82.88
42003;BME280;27693;50.506;30.832;2022-08-20T00:05:20;99684.25;;;18.43;82.83
42003;BME280;27693;50.506;30.832;2022-08-20T00:06:23;99678.03;;;18.44;82.84
42003;BME280;27693;50.506;30.832;2022-08-20T00:07:25;99688.93;;;18.39;82.83
42003;BME280;27693;50.506;30.832;2022-08-20T00:08:28;99683.53;;;18.41;82.88
42003;BME280;27693;50.506;30.832;2022-08-20T00:09:31;99683.66;;;18.39;82.82
42003;BME280;27693;50.506;30.832;2022-08-20T00:10:38;99683.66;;;18.39;82.81
42003;BME280;27693;50.506;30.832;2022-08-20T00:11:41;99688.80;;;18.41;82.89
42003;BME280;27693;50.506;30.832;2022-08-20T00:12:45;99684.98;;;18.45;82.95
42003;BME280;27693;50.506;30.832;2022-08-20T00:13:54;99688.31;;;18.47;83.11
42003;BME280;27693;50.506;30.832;2022-08-20T00:14:53;99690.48;;;18.53;83.04
42003;BME280;27693;50.506;30.832;2022-08-20T00:15:55;99687.59;;;18.56;82.96
42003;BME280;27693;50.506;30.832;2022-08-20T00:16:58;99687.36;;;18.59;82.66
42003;BME280;27693;50.506;30.832;2022-08-20T00:18:02;99687.45;;;18.58;82.24
42003;BME280;27693;50.506;30.832;2022-08-20T00:19:06;99682.09;;;18.59;82.28
42003;BME280;27693;50.506;30.832;2022-08-20T00:20:12;99685.81;;;18.57;82.14
42003;BME280;27693;50.506;30.832;2022-08-20T00:21:17;99689.00;;;18.60;82.37
42003;BME280;27693;50.506;30.832;2022-08-20T00:22:21;99689.13;;;18.59;82.10
42003;BME280;27693;50.506;30.832;2022-08-20T00:23:24;99685.55;;;18.60;82.23
42003;BME280;27693;50.506;30.832;2022-08-20T00:24:26;99685.67;;;18.47;82.48
42003;BME280;27693;50.506;30.832;2022-08-20T00:25:29;99689.78;;;18.40;82.71
42003;BME280;27693;50.506;30.832;2022-08-20T00:26:33;99684.74;;;18.36;82.86
42003;BME280;27693;50.506;30.832;2022-08-20T00:27:38;99688.33;;;18.35;82.91
42003;BME280;27693;50.506;30.832;2022-08-20T00:28:40;99687.86;;;18.30;83.19
42003;BME280;27693;50.506;30.832;2022-08-20T00:29:43;99685.46;;;18.27;83.34
42003;BME280;27693;50.506;30.832;2022-08-20T00:30:46;99687.39;;;18.25;83.47
42003;BME280;27693;50.506;30.832;2022-08-20T00:31:49;99689.06;;;18.15;84.02
42003;BME280;27693;50.506;30.832;2022-08-20T00:32:55;99691.47;;;18.18;84.15
42003;BME280;27693;50.506;30.832;2022-08-20T00:33:57;99691.47;;;18.18;84.08
42003;BME280;27693;50.506;30.832;2022-08-20T00:35:00;99692.89;;;18.22;84.13
42003;BME280;27693;50.506;30.832;2022-08-20T00:36:03;99695.05;;;18.17;84.05
42003;BME280;27693;50.506;30.832;2022-08-20T00:37:06;99693.86;;;18.10;84.47
42003;BME280;27693;50.506;30.832;2022-08-20T00:38:09;99699.34;;;18.07;84.54
42003;BME280;27693;50.506;30.832;2022-08-20T00:39:12;99699.25;;;18.08;84.52
42003;BME280;27693;50.506;30.832;2022-08-20T00:40:20;99698.39;;;18.08;84.56
42003;BME280;27693;50.506;30.832;2022-08-20T00:41:25;99704.26;;;18.11;84.53
42003;BME280;27693;50.506;30.832;2022-08-20T00:42:28;99702.22;;;18.15;84.43
42003;BME280;27693;50.506;30.832;2022-08-20T00:43:46;99703.91;;;18.16;84.29
42003;BME280;27693;50.506;30.832;2022-08-20T00:44:48;99708.95;;;18.19;84.34
42003;BME280;27693;50.506;30.832;2022-08-20T00:45:50;99715.98;;;18.18;84.12
42003;BME280;27693;50.506;30.832;2022-08-20T00:46:55;99715.86;;;18.20;84.14
42003;BME280;27693;50.506;30.832;2022-08-20T00:47:58;99710.37;;;18.23;84.26
42003;BME280;27693;50.506;30.832;2022-08-20T00:49:01;99706.53;;;18.27;84.30
42003;BME280;27693;50.506;30.832;2022-08-20T00:50:06;99704.62;;;18.29;84.01
42003;BME280;27693;50.506;30.832;2022-08-20T00:51:13;99710.36;;;18.34;84.08
42003;BME280;27693;50.506;30.832;2022-08-20T00:52:16;99703.31;;;18.35;83.81
42003;BME280;27693;50.506;30.832;2022-08-20T00:53:22;99706.90;;;18.34;83.44
42003;BME280;27693;50.506;30.832;2022-08-20T00:54:45;99701.77;;;18.32;83.17
42003;BME280;27693;50.506;30.832;2022-08-20T00:55:48;99706.30;;;18.30;83.29
42003;BME280;27693;50.506;30.832;2022-08-20T00:57:03;99698.16;;;18.22;83.67
42003;BME280;27693;50.506;30.832;2022-08-20T00:58:06;99707.27;;;18.18;83.73
42003;BME280;27693;50.506;30.832;2022-08-20T00:59:14;99709.64;;;18.21;83.71
42003;BME280;27693;50.506;30.832;2022-08-20T01:00:29;99706.78;;;18.24;83.89
42003;BME280;27693;50.506;30.832;2022-08-20T01:01:28;99705.83;;;18.25;83.80
42003;BME280;27693;50.506;30.832;2022-08-20T01:02:31;99709.16;;;18.27;83.83
42003;BME280;27693;50.506;30.832;2022-08-20T01:03:33;99706.43;;;18.29;83.98
42003;BME280;27693;50.506;30.832;2022-08-20T01:04:36;99708.80;;;18.32;84.02
42003;BME280;27693;50.506;30.832;2022-08-20T01:05:41;99715.62;;;18.34;83.98
42003;BME280;27693;50.506;30.832;2022-08-20T01:06:44;99712.16;;;18.34;83.96
42003;BME280;27693;50.506;30.832;2022-08-20T01:07:47;99711.81;;;18.39;83.92
42003;BME280;27693;50.506;30.832;2022-08-20T01:08:51;99712.50;;;18.41;83.56
42003;BME280;27693;50.506;30.832;2022-08-20T01:09:54;99712.63;;;18.39;83.27
42003;BME280;27693;50.506;30.832;2022-08-20T01:10:59;99712.50;;;18.41;83.20
42003;BME280;27693;50.506;30.832;2022-08-20T01:12:05;99709.41;;;18.35;83.19
42003;BME280;27693;50.506;30.832;2022-08-20T01:13:13;99708.56;;;18.24;83.63
42003;BME280;27693;50.506;30.832;2022-08-20T01:14:16;99708.70;;;18.11;84.29
42003;BME280;27693;50.506;30.832;2022-08-20T01:15:21;99708.45;;;18.02;84.76
42003;BME280;27693;50.506;30.832;2022-08-20T01:16:28;99703.72;;;17.83;85.72
42003;BME280;27693;50.506;30.832;2022-08-20T01:17:34;99710.80;;;17.83;85.75
42003;BME280;27693;50.506;30.832;2022-08-20T01:18:38;99705.41;;;17.84;85.78
42003;BME280;27693;50.506;30.832;2022-08-20T01:19:43;99706.48;;;17.82;86.15
42003;BME280;27693;50.506;30.832;2022-08-20T01:20:50;99709.33;;;17.79;86.42
42003;BME280;27693;50.506;30.832;2022-08-20T01:21:52;99705.66;;;17.81;86.44
42003;BME280;27693;50.506;30.832;2022-08-20T01:24:56;99711.48;;;17.85;86.25
42003;BME280;27693;50.506;30.832;2022-08-20T01:25:27;99708.16;;;17.83;86.29
42003;BME280;27693;50.506;30.832;2022-08-20T01:26:35;99712.21;;;17.76;86.59
42003;BME280;27693;50.506;30.832;2022-08-20T01:27:38;99708.62;;;17.77;86.73
42003;BME280;27693;50.506;30.832;2022-08-20T01:28:59;99705.66;;;17.81;86.79
42003;BME280;27693;50.506;30.832;2022-08-20T01:30:04;99706.48;;;17.82;86.59
42003;BME280;27693;50.506;30.832;2022-08-20T01:31:12;99699.31;;;17.84;86.75
42003;BME280;27693;50.506;30.832;2022-08-20T01:32:15;99697.38;;;17.86;86.59
42003;BME280;27693;50.506;30.832;2022-08-20T01:33:19;99700.02;;;17.86;86.91
42003;BME280;27693;50.506;30.832;2022-08-20T01:34:22;99694.97;;;17.71;87.21
42003;BME280;27693;50.506;30.832;2022-08-20T01:35:25;99695.43;;;17.65;87.49
42003;BME280;27693;50.506;30.832;2022-08-20T01:36:40;99696.89;;;17.69;87.44
42003;BME280;27693;50.506;30.832;2022-08-20T01:37:41;99699.27;;;17.72;87.58
42003;BME280;27693;50.506;30.832;2022-08-20T01:38:44;99691.16;;;17.76;87.24
42003;BME280;27693;50.506;30.832;2022-08-20T01:39:48;99685.64;;;17.79;86.99
42003;BME280;27693;50.506;30.832;2022-08-20T01:41:09;99689.95;;;17.68;87.52
42003;BME280;27693;50.506;30.832;2022-08-20T01:42:19;99690.64;;;17.59;87.91
42003;BME280;27693;50.506;30.832;2022-08-20T01:43:18;99682.28;;;17.65;87.88
42003;BME280;27693;50.506;30.832;2022-08-20T01:44:23;99674.90;;;17.70;87.70
42003;BME280;27693;50.506;30.832;2022-08-20T01:45:27;99677.53;;;17.70;87.68
42003;BME280;27693;50.506;30.832;2022-08-20T01:46:39;99682.54;;;17.73;87.58
42003;BME280;27693;50.506;30.832;2022-08-20T01:47:43;99677.83;;;17.54;88.38
42003;BME280;27693;50.506;30.832;2022-08-20T01:48:46;99666.56;;;17.41;88.94
42003;BME280;27693;50.506;30.832;2022-08-20T01:49:57;99676.47;;;17.37;89.27
42003;BME280;27693;50.506;30.832;2022-08-20T01:51:12;99674.36;;;17.43;89.29
42003;BME280;27693;50.506;30.832;2022-08-20T01:52:21;99672.22;;;17.48;89.02
42003;BME280;27693;50.506;30.832;2022-08-20T01:53:30;99670.05;;;17.42;89.19
42003;BME280;27693;50.506;30.832;2022-08-20T01:54:33;99669.92;;;17.43;89.06
42003;BME280;27693;50.506;30.832;2022-08-20T01:55:37;99665.05;;;17.50;89.05
42003;BME280;27693;50.506;30.832;2022-08-20T01:56:52;99665.75;;;17.52;88.77
42003;BME280;27693;50.506;30.832;2022-08-20T01:57:55;99670.53;;;17.47;88.87
42003;BME280;27693;50.506;30.832;2022-08-20T01:58:59;99669.31;;;17.39;89.29
42003;BME280;27693;50.506;30.832;2022-08-20T02:02:36;99665.73;;;17.40;90.01
42003;BME280;27693;50.506;30.832;2022-08-20T02:03:38;99666.66;;;17.28;90.01
42003;BME280;27693;50.506;30.832;2022-08-20T02:04:42;99672.48;;;17.20;90.27
42003;BME280;27693;50.506;30.832;2022-08-20T02:05:45;99673.61;;;17.29;90.21
42003;BME280;27693;50.506;30.832;2022-08-20T02:06:52;99676.72;;;17.34;89.93
42003;BME280;27693;50.506;30.832;2022-08-20T02:07:56;99675.52;;;17.38;89.68
42003;BME280;27693;50.506;30.832;2022-08-20T02:09:00;99671.22;;;17.37;89.40
42003;BME280;27693;50.506;30.832;2022-08-20T02:10:05;99668.34;;;17.29;89.71
42003;BME280;27693;50.506;30.832;2022-08-20T02:11:08;99670.45;;;17.24;89.99
42003;BME280;27693;50.506;30.832;2022-08-20T02:12:11;99672.38;;;17.22;90.13
42003;BME280;27693;50.506;30.832;2022-08-20T02:13:14;99673.21;;;17.22;90.13
42003;BME280;27693;50.506;30.832;2022-08-20T02:14:16;99681.22;;;17.21;90.25
42003;BME280;27693;50.506;30.832;2022-08-20T02:15:20;99675.72;;;17.24;90.11
42003;BME280;27693;50.506;30.832;2022-08-20T02:16:31;99680.77;;;17.27;90.19
42003;BME280;27693;50.506;30.832;2022-08-20T02:17:34;99683.88;;;17.32;90.08
42003;BME280;27693;50.506;30.832;2022-08-20T02:18:36;99681.03;;;17.35;89.68
42003;BME280;27693;50.506;30.832;2022-08-20T02:19:54;99688.45;;;17.42;89.39
42003;BME280;27693;50.506;30.832;2022-08-20T02:20:54;99698.24;;;17.39;89.33
42003;BME280;27693;50.506;30.832;2022-08-20T02:21:59;99696.83;;;17.47;89.41
42003;BME280;27693;50.506;30.832;2022-08-20T02:23:03;99693.98;;;17.50;89.11
42003;BME280;27693;50.506;30.832;2022-08-20T02:24:06;99689.20;;;17.55;88.86
42003;BME280;27693;50.506;30.832;2022-08-20T02:25:12;99695.43;;;17.65;89.08
42003;BME280;27693;50.506;30.832;2022-08-20T02:26:17;99696.42;;;17.76;88.85
42003;BME280;27693;50.506;30.832;2022-08-20T02:27:29;99700.39;;;17.81;88.25
42003;BME280;27693;50.506;30.832;2022-08-20T02:28:33;99700.74;;;17.88;87.92
42003;BME280;27693;50.506;30.832;2022-08-20T02:29:36;99693.58;;;17.90;87.29
42003;BME280;27693;50.506;30.832;2022-08-20T02:30:43;99696.72;;;17.95;87.09
42003;BME280;27693;50.506;30.832;2022-08-20T02:31:48;99703.41;;;17.99;87.11
42003;BME280;27693;50.506;30.832;2022-08-20T02:32:56;99697.92;;;18.02;86.85
42003;BME280;27693;50.506;30.832;2022-08-20T02:33:59;99694.80;;;18.09;86.68
42003;BME280;27693;50.506;30.832;2022-08-20T02:35:10;99693.59;;;18.13;86.27
42003;BME280;27693;50.506;30.832;2022-08-20T02:36:11;99690.49;;;18.08;85.58
42003;BME280;27693;50.506;30.832;2022-08-20T02:37:13;99685.00;;;18.11;85.45
42003;BME280;27693;50.506;30.832;2022-08-20T02:38:16;99678.06;;;18.10;85.38
42003;BME280;27693;50.506;30.832;2022-08-20T02:39:19;99685.83;;;18.11;85.36
42003;BME280;27693;50.506;30.832;2022-08-20T02:40:26;99686.69;;;18.12;85.15
42003;BME280;27693;50.506;30.832;2022-08-20T02:41:30;99687.86;;;18.08;85.29
42003;BME280;27693;50.506;30.832;2022-08-20T02:42:34;99686.69;;;18.12;85.41
42003;BME280;27693;50.506;30.832;2022-08-20T02:43:37;99689.91;;;18.15;85.37
42003;BME280;27693;50.506;30.832;2022-08-20T02:44:40;99687.63;;;18.22;85.38
42003;BME280;27693;50.506;30.832;2022-08-20T02:45:42;99685.59;;;18.26;85.21
42003;BME280;27693;50.506;30.832;2022-08-20T02:46:47;99685.81;;;18.23;84.85
42003;BME280;27693;50.506;30.832;2022-08-20T02:47:50;99675.19;;;18.24;84.82
42003;BME280;27693;50.506;30.832;2022-08-20T02:48:52;99680.19;;;18.27;84.67
42003;BME280;27693;50.506;30.832;2022-08-20T02:49:55;99677.56;;;18.27;84.46
42003;BME280;27693;50.506;30.832;2022-08-20T02:51:00;99684.27;;;18.20;84.60
42003;BME280;27693;50.506;30.832;2022-08-20T02:52:03;99686.43;;;18.15;84.67
42003;BME280;27693;50.506;30.832;2022-08-20T02:53:05;99679.26;;;18.17;84.89
42003;BME280;27693;50.506;30.832;2022-08-20T02:54:11;99681.89;;;18.17;84.79
42003;BME280;27693;50.506;30.832;2022-08-20T02:55:14;99679.00;;;18.20;84.85
42003;BME280;27693;50.506;30.832;2022-08-20T02:56:20;99685.59;;;18.26;84.98
42003;BME280;27693;50.506;30.832;2022-08-20T02:57:23;99681.87;;;18.28;84.55
42003;BME280;27693;50.506;30.832;2022-08-20T02:58:26;99677.46;;;18.29;84.38
42003;BME280;27693;50.506;30.832;2022-08-20T02:59:28;99684.28;;;18.31;84.44
42003;BME280;27693;50.506;30.832;2022-08-20T03:00:31;99687.38;;;18.36;84.21
42003;BME280;27693;50.506;30.832;2022-08-20T03:01:36;99689.78;;;18.40;84.30
42003;BME280;27693;50.506;30.832;2022-08-20T03:02:39;99690.48;;;18.42;84.20
42003;BME280;27693;50.506;30.832;2022-08-20T03:03:42;99686.40;;;18.49;84.26
42003;BME280;27693;50.506;30.832;2022-08-20T03:04:44;99691.90;;;18.57;83.92
42003;BME280;27693;50.506;30.832;2022-08-20T03:05:54;99694.53;;;18.57;83.53
42003;BME280;27693;50.506;30.832;2022-08-20T03:06:52;99682.09;;;18.59;83.52
42003;BME280;27693;50.506;30.832;2022-08-20T03:07:55;99695.95;;;18.61;83.22
42003;BME280;27693;50.506;30.832;2022-08-20T03:08:58;99696.80;;;18.62;83.29
42003;BME280;27693;50.506;30.832;2022-08-20T03:10:02;99692.49;;;18.61;83.08
42003;BME280;27693;50.506;30.832;2022-08-20T03:11:04;99688.91;;;18.62;83.18
42003;BME280;27693;50.506;30.832;2022-08-20T03:12:08;99700.86;;;18.66;83.02
42003;BME280;27693;50.506;30.832;2022-08-20T03:13:11;99696.18;;;18.70;83.04
42003;BME280;27693;50.506;30.832;2022-08-20T03:14:13;99701.31;;;18.71;82.98
42003;BME280;27693;50.506;30.832;2022-08-20T03:15:15;99705.05;;;18.68;82.89
42003;BME280;27693;50.506;30.832;2022-08-20T03:16:20;99699.91;;;18.67;82.81
42003;BME280;27693;50.506;30.832;2022-08-20T03:17:22;99705.30;;;18.65;82.87
42003;BME280;27693;50.506;30.832;2022-08-20T03:18:29;99702.91;;;18.62;83.06
42003;BME280;27693;50.506;30.832;2022-08-20T03:19:30;99707.22;;;18.63;83.13
42003;BME280;27693;50.506;30.832;2022-08-20T03:20:34;99709.72;;;18.65;83.11
42003;BME280;27693;50.506;30.832;2022-08-20T03:21:36;99705.05;;;18.68;83.23
42003;BME280;27693;50.506;30.832;2022-08-20T03:22:39;99701.09;;;18.74;83.27
42003;BME280;27693;50.506;30.832;2022-08-20T03:23:42;99699.63;;;18.81;83.09
42003;BME280;27693;50.506;30.832;2022-08-20T03:24:44;99699.63;;;18.81;83.09
42003;BME280;27693;50.506;30.832;2022-08-20T03:25:47;99708.38;;;18.93;83.06
42003;BME280;27693;50.506;30.832;2022-08-20T03:26:49;99707.30;;;18.96;82.58
42003;BME280;27693;50.506;30.832;2022-08-20T03:27:52;99711.48;;;18.98;82.19
42003;BME280;27693;50.506;30.832;2022-08-20T03:28:56;99701.53;;;18.91;81.86
42003;BME280;27693;50.506;30.832;2022-08-20T03:29:58;99703.31;;;18.90;81.85
42003;BME280;27693;50.506;30.832;2022-08-20T03:31:01;99705.03;;;18.91;81.94
42003;BME280;27693;50.506;30.832;2022-08-20T03:32:04;99705.23;;;18.88;81.95
42003;BME280;27693;50.506;30.832;2022-08-20T03:33:09;99696.86;;;18.83;81.99
42003;BME280;27693;50.506;30.832;2022-08-20T03:34:11;99698.78;;;18.81;82.17
42003;BME280;27693;50.506;30.832;2022-08-20T03:35:16;99705.49;;;18.85;82.34
42003;BME280;27693;50.506;30.832;2022-08-20T03:36:24;99704.64;;;18.84;82.20
42003;BME280;27693;50.506;30.832;2022-08-20T03:37:31;99706.22;;;18.87;82.22
42003;BME280;27693;50.506;30.832;2022-08-20T03:38:34;99706.08;;;18.89;82.25
42003;BME280;27693;50.506;30.832;2022-08-20T03:39:37;99704.89;;;18.93;82.40
42003;BME280;27693;50.506;30.832;2022-08-20T03:40:42;99703.11;;;18.93;81.94
42003;BME280;27693;50.506;30.832;2022-08-20T03:41:44;99703.70;;;18.97;82.02
42003;BME280;27693;50.506;30.832;2022-08-20T03:42:47;99695.89;;;18.95;81.94
42003;BME280;27693;50.506;30.832;2022-08-20T03:43:49;99704.52;;;18.97;82.05
42003;BME280;27693;50.506;30.832;2022-08-20T03:44:51;99704.98;;;19.03;82.19
42003;BME280;27693;50.506;30.832;2022-08-20T03:45:56;99704.02;;;19.04;82.10
42003;BME280;27693;50.506;30.832;2022-08-20T03:46:58;99700.19;;;19.08;82.05
42003;BME280;27693;50.506;30.832;2022-08-20T03:48:01;99703.52;;;19.10;82.00
42003;BME280;27693;50.506;30.832;2022-08-20T03:49:04;99701.84;;;19.09;81.66
42003;BME280;27693;50.506;30.832;2022-08-20T03:50:09;99696.33;;;19.12;81.82
42003;BME280;27693;50.506;30.832;2022-08-20T03:51:13;99698.73;;;19.15;81.63
42003;BME280;27693;50.506;30.832;2022-08-20T03:52:15;99702.91;;;19.18;81.57
42003;BME280;27693;50.506;30.832;2022-08-20T03:53:18;99697.63;;;19.18;81.50
42003;BME280;27693;50.506;30.832;2022-08-20T03:54:20;99696.09;;;19.15;81.51
42003;BME280;27693;50.506;30.832;2022-08-20T03:55:23;99694.27;;;19.15;81.58
42003;BME280;27693;50.506;30.832;2022-08-20T03:56:27;99692.09;;;19.21;81.71
42003;BME280;27693;50.506;30.832;2022-08-20T03:57:29;99689.45;;;19.21;81.55
42003;BME280;27693;50.506;30.832;2022-08-20T03:58:32;99690.81;;;19.15;81.59
42003;BME280;27693;50.506;30.832;2022-08-20T03:59:37;99685.70;;;19.02;82.26
42003;BME280;27693;50.506;30.832;2022-08-20T04:00:50;99690.63;;;18.95;82.54
42003;BME280;27693;50.506;30.832;2022-08-20T04:01:47;99688.70;;;18.97;82.48
42003;BME280;27693;50.506;30.832;2022-08-20T04:02:49;99685.56;;;19.04;82.58
42003;BME280;27693;50.506;30.832;2022-08-20T04:03:52;99682.42;;;19.10;82.70
42003;BME280;27693;50.506;30.832;2022-08-20T04:04:56;99685.55;;;19.15;82.51
42003;BME280;27693;50.506;30.832;2022-08-20T04:05:58;99688.36;;;19.23;82.30
42003;BME280;27693;50.506;30.832;2022-08-20T04:07:09;99677.19;;;19.31;81.99
42003;BME280;27693;50.506;30.832;2022-08-20T04:08:23;99680.41;;;19.35;81.36
42003;BME280;27693;50.506;30.832;2022-08-20T04:09:26;99681.51;;;19.32;81.24
42003;BME280;27693;50.506;30.832;2022-08-20T04:10:29;99687.53;;;19.23;81.43
42003;BME280;27693;50.506;30.832;2022-08-20T04:11:31;99691.95;;;19.22;81.49
42003;BME280;27693;50.506;30.832;2022-08-20T04:12:35;99690.75;;;19.26;81.64
42003;BME280;27693;50.506;30.832;2022-08-20T04:13:38;99689.52;;;19.30;81.36
42003;BME280;27693;50.506;30.832;2022-08-20T04:14:43;99683.05;;;19.35;81.40
42003;BME280;27693;50.506;30.832;2022-08-20T04:15:45;99692.64;;;19.36;81.29
42003;BME280;27693;50.506;30.832;2022-08-20T04:16:47;99689.59;;;19.40;81.24
42003;BME280;27693;50.506;30.832;2022-08-20T04:17:51;99689.59;;;19.40;80.97
42003;BME280;27693;50.506;30.832;2022-08-20T04:18:53;99690.07;;;19.45;81.03
42003;BME280;27693;50.506;30.832;2022-08-20T04:19:58;99693.02;;;19.52;80.98
42003;BME280;27693;50.506;30.832;2022-08-20T04:21:02;99690.81;;;19.57;80.78
42003;BME280;27693;50.506;30.832;2022-08-20T04:22:05;99684.72;;;19.57;80.26
42003;BME280;27693;50.506;30.832;2022-08-20T04:23:07;99689.17;;;19.56;80.23
42003;BME280;27693;50.506;30.832;2022-08-20T04:24:10;99688.89;;;19.59;80.27
42003;BME280;27693;50.506;30.832;2022-08-20T04:25:14;99686.70;;;19.64;80.21
42003;BME280;27693;50.506;30.832;2022-08-20T04:26:19;99679.50;;;19.67;80.00
42003;BME280;27693;50.506;30.832;2022-08-20T04:27:21;99680.89;;;19.71;80.00
42003;BME280;27693;50.506;30.832;2022-08-20T04:28:24;99677.88;;;19.75;79.92
42003;BME280;27693;50.506;30.832;2022-08-20T04:29:27;99673.17;;;19.79;79.66
42003;BME280;27693;50.506;30.832;2022-08-20T04:30:32;99678.97;;;19.73;79.25
42003;BME280;27693;50.506;30.832;2022-08-20T04:31:35;99677.77;;;19.77;79.39
42003;BME280;27693;50.506;30.832;2022-08-20T04:32:37;99679.98;;;19.82;79.45
42003;BME280;27693;50.506;30.832;2022-08-20T04:33:39;99681.55;;;19.84;79.17
42003;BME280;27693;50.506;30.832;2022-08-20T04:34:42;99686.59;;;19.87;79.26
42003;BME280;27693;50.506;30.832;2022-08-20T04:35:47;99683.80;;;19.89;78.95
42003;BME280;27693;50.506;30.832;2022-08-20T04:36:49;99677.42;;;19.91;78.58
42003;BME280;27693;50.506;30.832;2022-08-20T04:38:04;99677.42;;;19.91;78.58
42003;BME280;27693;50.506;30.832;2022-08-20T04:39:07;99679.09;;;19.92;78.82
42003;BME280;27693;50.506;30.832;2022-08-20T04:40:17;99678.56;;;19.99;78.96
42003;BME280;27693;50.506;30.832;2022-08-20T04:41:20;99679.14;;;20.02;78.95
42003;BME280;27693;50.506;30.832;2022-08-20T04:42:24;99682.35;;;20.06;78.83
42003;BME280;27693;50.506;30.832;2022-08-20T04:43:29;99685.84;;;20.06;78.67
42003;BME280;27693;50.506;30.832;2022-08-20T04:44:32;99687.63;;;20.06;78.41
42003;BME280;27693;50.506;30.832;2022-08-20T04:45:34;99686.06;;;19.93;78.50
42003;BME280;27693;50.506;30.832;2022-08-20T04:46:37;99683.80;;;19.89;78.82
42003;BME280;27693;50.506;30.832;2022-08-20T04:47:40;99682.70;;;19.91;78.89
42003;BME280;27693;50.506;30.832;2022-08-20T04:48:42;99683.17;;;19.97;78.99
42003;BME280;27693;50.506;30.832;2022-08-20T04:49:46;99678.31;;;20.02;78.95
42003;BME280;27693;50.506;30.832;2022-08-20T04:50:50;99678.03;;;20.05;78.65
42003;BME280;27693;50.506;30.832;2022-08-20T04:51:52;99676.82;;;20.09;78.36
42003;BME280;27693;50.506;30.832;2022-08-20T04:52:55;99678.50;;;20.10;78.20
42003;BME280;27693;50.506;30.832;2022-08-20T04:53:57;99679.18;;;20.12;78.09
42003;BME280;27693;50.506;30.832;2022-08-20T04:54:59;99682.10;;;20.09;77.92
42003;BME280;27693;50.506;30.832;2022-08-20T04:56:02;99679.24;;;19.91;78.60
42003;BME280;27693;50.506;30.832;2022-08-20T04:57:05;99676.59;;;19.91;78.83
42003;BME280;27693;50.506;30.832;2022-08-20T04:58:16;99674.25;;;19.98;79.00
42003;BME280;27693;50.506;30.832;2022-08-20T04:59:18;99672.07;;;20.03;78.96
42003;BME280;27693;50.506;30.832;2022-08-20T05:00:21;99678.22;;;20.13;78.80
42003;BME280;27693;50.506;30.832;2022-08-20T05:01:24;99679.21;;;20.22;78.61
42003;BME280;27693;50.506;30.832;2022-08-20T05:02:26;99676.89;;;20.29;78.34
42003;BME280;27693;50.506;30.832;2022-08-20T05:03:30;99673.70;;;20.35;78.25
42003;BME280;27693;50.506;30.832;2022-08-20T05:04:33;99671.23;;;20.43;78.14
42003;BME280;27693;50.506;30.832;2022-08-20T05:05:35;99668.75;;;20.51;77.67
42003;BME280;27693;50.506;30.832;2022-08-20T05:06:38;99669.88;;;20.58;77.28
42003;BME280;27693;50.506;30.832;2022-08-20T05:07:43;99669.59;;;20.62;76.93
42003;BME280;27693;50.506;30.832;2022-08-20T05:08:45;99674.22;;;20.69;76.68
42003;BME280;27693;50.506;30.832;2022-08-20T05:09:48;99666.02;;;20.72;76.31
42003;BME280;27693;50.506;30.832;2022-08-20T05:10:52;99667.15;;;20.80;76.28
42003;BME280;27693;50.506;30.832;2022-08-20T05:11:56;99671.06;;;20.85;75.97
42003;BME280;27693;50.506;30.832;2022-08-20T05:12:59;99665.22;;;20.92;75.79
42003;BME280;27693;50.506;30.832;2022-08-20T05:14:02;99662.28;;;20.95;75.46
42003;BME280;27693;50.506;30.832;2022-08-20T05:15:05;99666.34;;;20.99;75.42
42003;BME280;27693;50.506;30.832;2022-08-20T05:16:08;99664.92;;;21.04;75.26
42003;BME280;27693;50.506;30.832;2022-08-20T05:17:11;99666.74;;;21.04;74.86
42003;BME280;27693;50.506;30.832;2022-08-20T05:18:16;99660.48;;;21.05;74.91
42003;BME280;27693;50.506;30.832;2022-08-20T05:19:18;99661.86;;;21.09;74.47
42003;BME280;27693;50.506;30.832;2022-08-20T05:20:22;99664.95;;;21.14;74.53
42003;BME280;27693;50.506;30.832;2022-08-20T05:21:24;99666.33;;;21.18;74.58
42003;BME280;27693;50.506;30.832;2022-08-20T05:22:26;99651.98;;;21.21;74.40
42003;BME280;27693;50.506;30.832;2022-08-20T05:23:35;99654.36;;;21.24;74.44
42003;BME280;27693;50.506;30.832;2022-08-20T05:24:38;99653.23;;;21.27;74.21
42003;BME280;27693;50.506;30.832;2022-08-20T05:25:42;99653.66;;;21.12;74.05
42003;BME280;27693;50.506;30.832;2022-08-20T05:26:45;99658.81;;;21.04;74.32
42003;BME280;27693;50.506;30.832;2022-08-20T05:27:47;99651.58;;;21.06;74.35
42003;BME280;27693;50.506;30.832;2022-08-20T05:28:49;99656.98;;;21.04;74.41
42003;BME280;27693;50.506;30.832;2022-08-20T05:29:58;99653.11;;;21.09;74.39
42003;BME280;27693;50.506;30.832;2022-08-20T05:31:01;99644.20;;;21.10;74.25
42003;BME280;27693;50.506;30.832;2022-08-20T05:32:04;99641.81;;;21.16;74.21
42003;BME280;27693;50.506;30.832;2022-08-20T05:33:07;99639.86;;;21.28;73.93
42003;BME280;27693;50.506;30.832;2022-08-20T05:34:11;99638.16;;;21.37;73.52
42003;BME280;27693;50.506;30.832;2022-08-20T05:35:14;99636.47;;;21.46;73.30
42003;BME280;27693;50.506;30.832;2022-08-20T05:36:16;99636.62;;;21.44;72.88
42003;BME280;27693;50.506;30.832;2022-08-20T05:37:19;99635.37;;;21.48;72.80
42003;BME280;27693;50.506;30.832;2022-08-20T05:38:24;99640.36;;;21.51;72.57
42003;BME280;27693;50.506;30.832;2022-08-20T05:39:27;99639.27;;;21.44;72.71
42003;BME280;27693;50.506;30.832;2022-08-20T05:40:30;99638.99;;;21.47;72.60